KOSU/OSU METAR and TAF weather

Enter ICAO airport designator
Station Type Date Time Source
KOSU METAR 2022/08/16 18:53 UTC NOAA

KOSU 161853Z 04008KT 10SM BKN037 BKN044 24/16 A3002 RMK AO2 SLP160 T02440161


Station Type Date Time Source
KOSU Decoded METAR 2022/08/16 18:53 UTC NOAA

OHIO STATE UNIVERSITY AIRPORT , OH, United States (KOSU) 40-05N 083-05W 280M
Aug 16, 2022 - 02:53 PM EDT / 2022.08.16 1853 UTC
Wind: from the NE (040 degrees) at 9 MPH (8 KT):0
Visibility: 10 mile(s):0
Sky conditions: mostly cloudy
Temperature: 75.9 F (24.4 C)
Dew Point: 61.0 F (16.1 C)
Relative Humidity: 59%
Pressure (altimeter): 30.02 in. Hg (1016 hPa)
ob: KOSU 161853Z 04008KT 10SM BKN037 BKN044 24/16 A3002 RMK AO2 SLP160 T02440161
cycle: 19

Station Type Date Time Source
KOSU TAF UTC NOAA

Error!

Example: see airport list